Time;durP1;ratioP1;P1;durP2;ratioP2;P2;SDS_P1;SDS_P2;PMS_P1;PMS_P2;Temp;Humidity;BMP_temperature;BMP_pressure;BME280_temperature;BME280_humidity;BME280_pressure;Samples;Min_cycle;Max_cycle;Signal;HPM_P1;HPM_P2
2022/05/03 00:00:00;;;;;;;8.50;7.70;;;12.30;99.90;;;;;;5081212;28;20027;-75
2022/05/03 00:02:37;;;;;;;9.30;8.02;;;12.40;99.90;;;;;;5064575;28;20021;-75
2022/05/03 00:05:10;;;;;;;9.40;7.97;;;12.50;99.90;;;;;;5078501;28;20024;-75
2022/05/03 00:08:01;;;;;;;8.82;7.93;;;12.60;99.90;;;;;;5077572;28;20034;-76
2022/05/03 00:10:50;;;;;;;9.00;7.88;;;12.50;99.90;;;;;;5070935;28;20155;-76
2022/05/03 00:13:19;;;;;;;9.48;8.48;;;12.50;99.90;;;;;;5067791;28;20016;-74
2022/05/03 00:15:46;;;;;;;9.38;8.48;;;12.50;99.90;;;;;;5082562;28;20470;-75
2022/05/03 00:18:12;;;;;;;8.60;7.53;;;12.30;99.90;;;;;;5081304;28;20489;-75
2022/05/03 00:20:39;;;;;;;8.60;7.85;;;12.40;99.90;;;;;;5080239;28;20028;-76
2022/05/03 00:23:05;;;;;;;9.00;8.10;;;12.50;99.90;;;;;;5087098;28;20020;-75
2022/05/03 00:25:32;;;;;;;9.00;8.02;;;12.50;99.90;;;;;;5079751;28;20036;-76
2022/05/03 00:28:00;;;;;;;8.90;8.00;;;12.50;99.90;;;;;;5083237;28;20028;-76
2022/05/03 00:30:27;;;;;;;8.60;7.75;;;12.40;99.90;;;;;;5083407;28;20020;-76
2022/05/03 00:32:54;;;;;;;9.55;8.25;;;12.40;99.90;;;;;;5082933;28;20032;-75
2022/05/03 00:35:21;;;;;;;9.90;8.32;;;12.30;99.90;;;;;;5082307;28;20012;-75
2022/05/03 00:37:47;;;;;;;9.65;8.40;;;12.30;99.90;;;;;;5082897;28;20020;-74
2022/05/03 00:40:17;;;;;;;8.77;7.90;;;12.20;99.90;;;;;;5076924;28;20026;-72
2022/05/03 00:43:11;;;;;;;9.18;8.27;;;12.20;99.90;;;;;;5077623;28;20016;-75
2022/05/03 00:45:45;;;;;;;9.57;8.55;;;12.30;99.90;;;;;;5082402;28;20028;-75
2022/05/03 00:48:22;;;;;;;9.55;8.65;;;12.20;99.90;;;;;;5083516;28;20027;-74
2022/05/03 00:50:51;;;;;;;9.60;8.60;;;12.20;99.90;;;;;;5086393;28;20095;-75
2022/05/03 00:53:26;;;;;;;9.15;8.02;;;12.10;99.90;;;;;;5076002;28;20028;-76
2022/05/03 00:56:12;;;;;;;9.00;8.15;;;12.10;99.90;;;;;;5084472;28;20036;-75
2022/05/03 00:59:11;;;;;;;9.37;8.47;;;12.10;99.90;;;;;;5086549;28;20024;-75
2022/05/03 01:01:36;;;;;;;10.00;8.40;;;12.10;99.90;;;;;;5099105;28;20310;-76
2022/05/03 01:04:14;;;;;;;9.32;8.10;;;12.20;99.90;;;;;;5085268;28;20555;-76
2022/05/03 01:07:32;;;;;;;9.07;8.15;;;12.20;99.90;;;;;;5079775;28;20036;-76
2022/05/03 01:10:04;;;;;;;11.43;9.43;;;12.20;99.90;;;;;;4990636;28;20031;-75
2022/05/03 01:12:52;;;;;;;9.25;8.35;;;12.20;99.90;;;;;;5074053;28;20433;-75
2022/05/03 01:15:24;;;;;;;8.98;8.02;;;12.10;99.90;;;;;;5075846;28;20050;-76
2022/05/03 01:18:22;;;;;;;8.95;8.05;;;12.20;99.90;;;;;;5077939;28;20034;-76
2022/05/03 01:21:24;;;;;;;10.80;9.10;;;12.30;99.90;;;;;;5061102;28;20024;-76
2022/05/03 01:24:08;;;;;;;9.80;8.63;;;12.30;99.90;;;;;;5079197;28;20451;-75
2022/05/03 01:26:55;;;;;;;9.68;8.77;;;12.10;99.90;;;;;;5075928;28;20106;-74
2022/05/03 01:29:32;;;;;;;9.57;8.63;;;12.10;99.90;;;;;;5084946;28;20115;-76
2022/05/03 01:32:04;;;;;;;10.27;9.27;;;12.10;99.90;;;;;;5080334;28;20489;-75
2022/05/03 01:34:30;;;;;;;9.38;8.45;;;11.90;99.90;;;;;;5084887;28;20016;-76
2022/05/03 01:37:19;;;;;;;10.68;9.63;;;11.80;99.90;;;;;;5084821;28;20101;-75
2022/05/03 01:40:13;;;;;;;10.40;8.82;;;11.80;99.90;;;;;;5083137;28;20018;-76
2022/05/03 01:42:50;;;;;;;10.40;9.40;;;11.90;99.90;;;;;;5078718;28;20482;-75
2022/05/03 01:45:36;;;;;;;10.32;9.35;;;11.90;99.90;;;;;;5073843;28;20040;-77
2022/05/03 01:51:33;;;;;;;10.25;9.20;;;11.70;99.90;;;;;;5073786;28;20035;-74
2022/05/03 01:54:25;;;;;;;9.70;8.80;;;11.60;99.90;;;;;;5072916;28;20027;-75
2022/05/03 01:57:04;;;;;;;9.80;8.82;;;11.60;99.90;;;;;;5060820;28;20056;-75
2022/05/03 01:59:49;;;;;;;9.45;8.55;;;11.60;99.90;;;;;;5074104;28;20259;-75
2022/05/03 02:02:57;;;;;;;9.15;8.25;;;11.50;99.90;;;;;;5072154;28;20482;-74
2022/05/03 02:05:40;;;;;;;10.80;9.13;;;11.30;99.90;;;;;;5065371;28;20071;-74
2022/05/03 02:08:10;;;;;;;10.70;9.70;;;11.60;99.90;;;;;;5073750;28;20021;-76
2022/05/03 02:10:58;;;;;;;10.48;9.38;;;11.60;99.90;;;;;;5073263;28;20033;-76
2022/05/03 02:14:43;;;;;;;10.40;9.40;;;11.60;99.90;;;;;;5072446;28;20016;-76
2022/05/03 02:16:29;;;;;;;11.18;9.93;;;11.50;99.90;;;;;;5073493;28;20478;-76
2022/05/03 02:19:20;;;;;;;10.77;9.68;;;11.50;99.90;;;;;;5074645;28;20563;-77
2022/05/03 02:22:20;;;;;;;10.90;9.80;;;11.50;99.90;;;;;;5044339;28;20464;-76
2022/05/03 02:24:55;;;;;;;10.10;9.10;;;11.40;99.90;;;;;;5064879;28;20111;-76
2022/05/03 02:27:23;;;;;;;10.53;9.53;;;11.50;99.90;;;;;;5071976;28;20029;-75
2022/05/03 02:29:50;;;;;;;14.43;10.27;;;11.50;99.90;;;;;;5073487;28;20266;-76
2022/05/03 02:32:24;;;;;;;10.45;9.45;;;11.40;99.90;;;;;;5072719;28;20059;-75
2022/05/03 02:34:58;;;;;;;10.70;9.70;;;11.50;99.90;;;;;;5073451;28;20028;-75
2022/05/03 02:37:51;;;;;;;12.90;9.45;;;11.50;99.90;;;;;;5073423;28;20032;-75
2022/05/03 02:40:20;;;;;;;10.50;9.13;;;11.50;99.90;;;;;;5072348;28;20048;-75
2022/05/03 02:42:45;;;;;;;10.95;9.85;;;11.50;99.90;;;;;;5072003;28;20028;-74
2022/05/03 02:45:13;;;;;;;11.00;9.90;;;11.40;99.90;;;;;;5073286;28;20051;-74
2022/05/03 02:47:58;;;;;;;11.52;10.43;;;11.30;99.90;;;;;;5073013;28;20135;-75
2022/05/03 02:50:52;;;;;;;10.60;9.70;;;11.20;99.90;;;;;;5071113;28;20486;-75
2022/05/03 02:53:23;;;;;;;10.50;9.57;;;11.20;99.90;;;;;;5071601;28;20757;-75
2022/05/03 02:55:58;;;;;;;10.55;9.55;;;11.10;99.90;;;;;;5072766;28;20059;-74
2022/05/03 02:58:33;;;;;;;10.23;9.18;;;11.10;99.90;;;;;;5071700;28;20433;-74
2022/05/03 03:04:29;;;;;;;11.95;10.80;;;11.00;99.90;;;;;;5060844;28;20090;-74
2022/05/03 03:06:55;;;;;;;11.73;10.30;;;11.10;99.90;;;;;;5063079;28;20020;-74
2022/05/03 03:09:26;;;;;;;11.38;10.38;;;10.90;99.90;;;;;;5066917;28;20017;-76
2022/05/03 03:12:13;;;;;;;11.63;10.52;;;10.80;99.90;;;;;;5063942;28;20032;-74
2022/05/03 03:14:51;;;;;;;10.70;9.60;;;10.70;99.90;;;;;;5071376;28;20095;-76
2022/05/03 03:17:28;;;;;;;11.85;10.63;;;10.60;99.90;;;;;;5072448;28;20214;-76
2022/05/03 03:20:04;;;;;;;11.65;10.40;;;10.50;99.90;;;;;;5071473;28;20432;-75
2022/05/03 03:22:34;;;;;;;11.93;10.82;;;10.50;99.90;;;;;;5072123;28;20024;-75
2022/05/03 03:25:02;;;;;;;10.75;9.68;;;10.40;99.90;;;;;;5072784;28;20025;-76
2022/05/03 03:27:31;;;;;;;16.63;15.13;;;10.40;99.90;;;;;;5072442;28;20043;-76
2022/05/03 03:29:58;;;;;;;14.13;12.82;;;10.40;99.90;;;;;;5072594;28;20013;-75
2022/05/03 03:32:26;;;;;;;11.43;10.32;;;10.30;99.90;;;;;;5071816;28;20016;-74
2022/05/03 03:34:55;;;;;;;10.95;10.00;;;10.20;99.90;;;;;;5070812;28;20043;-75
2022/05/03 03:37:26;;;;;;;13.77;10.68;;;10.20;99.90;;;;;;5070889;28;20046;-76
2022/05/03 03:39:51;;;;;;;11.27;8.75;;;10.20;99.90;;;;;;5070891;28;20371;-75
2022/05/03 03:42:17;;;;;;;10.27;9.38;;;10.30;99.90;;;;;;5071492;28;20047;-75
2022/05/03 03:44:43;;;;;;;10.65;9.65;;;10.40;99.90;;;;;;5068070;28;20025;-75
2022/05/03 03:47:09;;;;;;;11.15;9.20;;;10.40;99.90;;;;;;5061447;28;20371;-74
2022/05/03 03:49:35;;;;;;;11.18;10.00;;;10.50;99.90;;;;;;5071914;28;20086;-75
2022/05/03 03:52:01;;;;;;;10.15;9.15;;;10.40;99.90;;;;;;5071433;28;20103;-74
2022/05/03 03:54:28;;;;;;;10.30;9.38;;;10.40;99.90;;;;;;5071777;28;20028;-74
2022/05/03 03:56:55;;;;;;;10.18;9.20;;;10.40;99.90;;;;;;5071925;28;20051;-75
2022/05/03 03:59:22;;;;;;;10.73;9.40;;;10.40;99.90;;;;;;5071716;28;20033;-75
2022/05/03 04:01:50;;;;;;;10.48;9.48;;;10.50;99.90;;;;;;5071055;28;20033;-75
2022/05/03 04:04:17;;;;;;;10.77;9.68;;;10.40;99.90;;;;;;5070429;28;20478;-75
2022/05/03 04:06:43;;;;;;;11.05;9.98;;;10.40;99.90;;;;;;5071686;28;20058;-76
2022/05/03 04:09:09;;;;;;;12.60;10.57;;;10.50;99.90;;;;;;5070404;28;20402;-76
2022/05/03 04:11:42;;;;;;;12.98;10.15;;;10.50;99.90;;;;;;5062073;28;20028;-76
2022/05/03 04:14:08;;;;;;;13.00;10.65;;;10.50;99.90;;;;;;5067019;28;20397;-75
2022/05/03 04:16:33;;;;;;;11.90;10.80;;;10.30;99.90;;;;;;5071582;28;20103;-76
2022/05/03 04:18:59;;;;;;;12.00;10.75;;;10.30;99.90;;;;;;5067504;28;20746;-75
2022/05/03 04:21:24;;;;;;;12.15;11.05;;;10.30;99.90;;;;;;5058958;28;20548;-74
2022/05/03 04:23:50;;;;;;;13.18;10.85;;;10.30;99.90;;;;;;5070280;28;20123;-74
2022/05/03 04:26:15;;;;;;;12.20;10.82;;;10.40;99.90;;;;;;5070278;28;20048;-74
2022/05/03 04:28:41;;;;;;;12.25;10.90;;;10.50;99.90;;;;;;5070061;28;20039;-74
2022/05/03 04:31:07;;;;;;;11.68;10.50;;;10.50;99.90;;;;;;5062642;28;20017;-74
2022/05/03 04:33:33;;;;;;;12.20;10.00;;;10.60;99.90;;;;;;5065426;28;20122;-73
2022/05/03 04:35:59;;;;;;;11.55;10.23;;;10.60;99.90;;;;;;5071501;28;20024;-74
2022/05/03 04:38:25;;;;;;;11.63;10.43;;;10.70;99.90;;;;;;5070043;28;20094;-73
2022/05/03 04:40:56;;;;;;;12.27;11.07;;;10.70;99.90;;;;;;5070722;28;20021;-74
2022/05/03 04:43:22;;;;;;;12.00;10.90;;;10.70;99.90;;;;;;5058048;28;20540;-74
2022/05/03 04:45:48;;;;;;;11.52;10.32;;;10.70;99.90;;;;;;5071218;28;20029;-73
2022/05/03 04:48:14;;;;;;;11.95;10.60;;;10.70;99.90;;;;;;5071373;28;20486;-74
2022/05/03 04:50:41;;;;;;;11.38;10.25;;;10.80;99.90;;;;;;5070785;28;20493;-75
2022/05/03 04:53:06;;;;;;;11.52;10.43;;;10.80;99.90;;;;;;5071386;28;20021;-74
2022/05/03 04:55:32;;;;;;;12.50;10.52;;;10.80;99.90;;;;;;5071475;28;20071;-74
2022/05/03 04:57:57;;;;;;;12.55;10.57;;;10.90;99.90;;;;;;5071168;28;20518;-75
2022/05/03 05:00:23;;;;;;;11.80;10.65;;;10.90;99.90;;;;;;5069312;28;20020;-74
2022/05/03 05:02:48;;;;;;;12.52;11.23;;;10.60;99.90;;;;;;5071159;28;20020;-74
2022/05/03 05:05:14;;;;;;;12.82;11.52;;;10.40;99.90;;;;;;5060598;28;20027;-75
2022/05/03 05:07:39;;;;;;;13.13;11.25;;;10.30;99.90;;;;;;5068158;28;20036;-75
2022/05/03 05:10:24;;;;;;;13.00;11.73;;;10.20;99.90;;;;;;5071148;28;20092;-71
2022/05/03 05:12:50;;;;;;;11.98;10.60;;;10.30;99.90;;;;;;5071166;28;20021;-73
2022/05/03 05:15:16;;;;;;;11.77;10.68;;;10.70;99.90;;;;;;5071255;28;20531;-74
2022/05/03 05:17:42;;;;;;;13.32;11.93;;;10.60;99.90;;;;;;5071041;28;20040;-75
2022/05/03 05:20:08;;;;;;;11.95;10.85;;;10.60;99.90;;;;;;5070964;28;20025;-75
2022/05/03 05:22:33;;;;;;;12.23;10.82;;;10.60;99.90;;;;;;5070511;28;20033;-74
2022/05/03 05:24:59;;;;;;;12.35;11.15;;;10.90;99.90;;;;;;5069779;28;20036;-74
2022/05/03 05:27:24;;;;;;;11.23;10.13;;;11.00;99.90;;;;;;5069412;28;20588;-75
2022/05/03 05:29:50;;;;;;;12.13;10.82;;;11.20;99.90;;;;;;5071445;28;20029;-74
2022/05/03 05:32:15;;;;;;;11.48;10.27;;;11.40;99.90;;;;;;5074063;28;20024;-75
2022/05/03 05:34:41;;;;;;;11.77;9.63;;;11.50;99.90;;;;;;5073450;28;20028;-75
2022/05/03 05:37:06;;;;;;;12.15;10.00;;;11.60;99.90;;;;;;5074272;28;20048;-74
2022/05/03 05:39:32;;;;;;;12.02;10.20;;;11.70;99.90;;;;;;5073130;28;20469;-75
2022/05/03 05:41:59;;;;;;;11.40;10.20;;;11.70;99.90;;;;;;5072417;28;20059;-75
2022/05/03 05:44:25;;;;;;;12.07;10.73;;;11.80;99.90;;;;;;5074379;28;20486;-75
2022/05/03 05:46:52;;;;;;;12.48;11.18;;;11.80;99.90;;;;;;5072801;28;20028;-75
2022/05/03 05:49:18;;;;;;;15.35;13.80;;;12.00;99.90;;;;;;5074329;28;20056;-75
2022/05/03 05:51:45;;;;;;;11.77;10.57;;;12.10;99.90;;;;;;5072350;28;20025;-76
2022/05/03 05:54:11;;;;;;;11.50;10.48;;;12.00;99.90;;;;;;5072720;28;20024;-74
2022/05/03 05:56:37;;;;;;;14.15;10.70;;;12.10;99.90;;;;;;5059491;28;20036;-76
2022/05/03 05:59:02;;;;;;;12.48;10.80;;;12.10;99.90;;;;;;5074012;28;20029;-74
2022/05/03 06:01:39;;;;;;;12.40;11.10;;;12.10;99.90;;;;;;5072191;28;20040;-74
2022/05/03 06:04:05;;;;;;;12.18;10.88;;;12.00;99.90;;;;;;5073966;28;20118;-74
2022/05/03 06:06:32;;;;;;;12.52;11.23;;;12.00;99.90;;;;;;5072243;28;20024;-74
2022/05/03 06:08:59;;;;;;;11.18;10.18;;;12.10;99.90;;;;;;5073823;28;20021;-75
2022/05/03 06:11:24;;;;;;;12.02;10.82;;;12.20;99.90;;;;;;5071977;28;20050;-75
2022/05/03 06:13:50;;;;;;;12.07;10.77;;;12.50;99.90;;;;;;5072612;28;20032;-74
2022/05/03 06:16:15;;;;;;;12.05;10.85;;;12.60;99.90;;;;;;5073763;28;20473;-75
2022/05/03 06:18:41;;;;;;;13.05;11.65;;;12.40;99.90;;;;;;5073737;28;20386;-75
2022/05/03 06:21:10;;;;;;;12.52;11.38;;;12.50;99.90;;;;;;5071931;28;20029;-74
2022/05/03 06:23:36;;;;;;;12.48;11.30;;;12.40;99.90;;;;;;5073830;28;20106;-75
2022/05/03 06:26:05;;;;;;;12.77;11.32;;;12.50;99.90;;;;;;5073623;28;20035;-74
2022/05/03 06:28:32;;;;;;;12.50;11.15;;;12.60;99.90;;;;;;5073499;28;20025;-74
2022/05/03 06:30:58;;;;;;;12.43;11.15;;;12.60;99.90;;;;;;5073031;28;20032;-75
2022/05/03 06:33:23;;;;;;;15.70;11.93;;;12.80;99.90;;;;;;5073373;28;20016;-75
2022/05/03 06:35:49;;;;;;;13.23;11.93;;;12.80;99.90;;;;;;5073404;28;20597;-75
2022/05/03 06:38:14;;;;;;;12.95;11.65;;;12.80;99.90;;;;;;5073188;28;20036;-75
2022/05/03 06:40:40;;;;;;;12.90;11.52;;;12.90;99.90;;;;;;5072657;28;20020;-74
2022/05/03 06:43:06;;;;;;;13.02;11.82;;;13.00;99.90;;;;;;5058639;28;20403;-75
2022/05/03 06:45:32;;;;;;;12.32;11.23;;;13.00;99.90;;;;;;5073239;28;20032;-74
2022/05/03 06:47:57;;;;;;;14.15;11.88;;;13.00;99.90;;;;;;5071841;28;20024;-75
2022/05/03 06:50:23;;;;;;;13.93;11.18;;;13.10;99.90;;;;;;5059175;28;20020;-75
2022/05/03 06:52:48;;;;;;;16.83;12.02;;;13.10;99.90;;;;;;5073994;28;20029;-78
2022/05/03 06:55:14;;;;;;;13.02;11.52;;;13.10;99.90;;;;;;5066298;28;20043;-74
2022/05/03 06:57:40;;;;;;;13.20;11.93;;;13.20;99.90;;;;;;5067189;28;20063;-75
2022/05/03 07:00:06;;;;;;;12.77;11.48;;;13.20;99.90;;;;;;5083827;28;20154;-74
2022/05/03 07:02:32;;;;;;;13.15;11.82;;;13.20;99.90;;;;;;5077828;28;20111;-74
2022/05/03 07:04:59;;;;;;;12.85;11.55;;;13.10;99.90;;;;;;5073025;28;20037;-74
2022/05/03 07:07:26;;;;;;;14.63;13.13;;;13.10;99.90;;;;;;5071346;28;20035;-74
2022/05/03 07:09:51;;;;;;;13.57;12.27;;;13.20;99.90;;;;;;5059737;28;20027;-75
2022/05/03 07:12:17;;;;;;;13.73;11.82;;;13.20;99.90;;;;;;5072071;28;20024;-75
2022/05/03 07:14:42;;;;;;;13.90;12.50;;;13.30;99.90;;;;;;5072539;28;20024;-72
2022/05/03 07:17:08;;;;;;;13.18;11.85;;;13.30;99.90;;;;;;5072455;28;20043;-72
2022/05/03 07:25:01;;;;;;;14.32;11.88;;;13.60;99.90;;;;;;5063779;28;20039;-75
2022/05/03 07:27:28;;;;;;;13.88;11.57;;;13.50;99.90;;;;;;5070231;28;20028;-74
2022/05/03 07:29:54;;;;;;;12.55;11.27;;;13.70;99.90;;;;;;5072219;28;20016;-75
2022/05/03 07:32:19;;;;;;;14.13;11.68;;;13.70;99.90;;;;;;5058150;28;20478;-75
2022/05/03 07:34:46;;;;;;;16.15;14.55;;;13.80;99.90;;;;;;5070979;28;20017;-74
2022/05/03 07:37:12;;;;;;;13.88;11.23;;;13.90;99.90;;;;;;5072080;28;20478;-73
2022/05/03 07:39:38;;;;;;;14.57;11.30;;;14.10;99.90;;;;;;5072245;28;20047;-73
2022/05/03 07:42:04;;;;;;;14.30;12.27;;;14.20;99.90;;;;;;5071749;28;20032;-73
2022/05/03 07:44:29;;;;;;;13.27;11.70;;;14.40;99.90;;;;;;5072076;28;20029;-73
2022/05/03 07:46:57;;;;;;;12.93;11.60;;;14.40;99.90;;;;;;5066146;28;20033;-75
2022/05/03 07:49:22;;;;;;;12.07;10.88;;;14.60;99.90;;;;;;5064673;28;20013;-74
2022/05/03 07:51:48;;;;;;;13.05;11.57;;;14.70;99.90;;;;;;5071346;28;20028;-75
2022/05/03 07:54:14;;;;;;;12.90;11.68;;;14.80;99.90;;;;;;5070540;28;20024;-74
2022/05/03 07:56:40;;;;;;;12.43;10.95;;;15.10;99.90;;;;;;5071841;28;20080;-75
2022/05/03 07:59:08;;;;;;;13.23;10.82;;;15.40;99.90;;;;;;5071899;28;20050;-74
2022/05/03 08:01:34;;;;;;;12.25;11.02;;;15.40;99.90;;;;;;5071335;28;20024;-75
2022/05/03 08:03:59;;;;;;;12.10;10.80;;;15.40;99.90;;;;;;5071635;28;20040;-74
2022/05/03 08:06:27;;;;;;;13.52;10.50;;;15.70;99.90;;;;;;5058588;28;20025;-74
2022/05/03 08:08:52;;;;;;;12.20;10.95;;;15.80;99.90;;;;;;5071787;28;20016;-74
2022/05/03 08:11:18;;;;;;;11.23;10.13;;;16.00;99.90;;;;;;5071222;28;20542;-76
2022/05/03 08:13:45;;;;;;;11.88;10.68;;;15.80;99.90;;;;;;5071658;28;20032;-74
2022/05/03 08:16:20;;;;;;;13.93;10.60;;;15.80;99.90;;;;;;5071709;28;20029;-75
2022/05/03 08:18:47;;;;;;;11.90;10.80;;;16.00;99.90;;;;;;5070506;28;20082;-75
2022/05/03 08:21:14;;;;;;;11.43;10.18;;;15.90;99.90;;;;;;5071099;28;20021;-75
2022/05/03 08:23:39;;;;;;;12.57;10.18;;;16.10;99.90;;;;;;5070361;28;20056;-74
2022/05/03 08:26:05;;;;;;;11.93;9.88;;;16.50;99.90;;;;;;5071570;28;20418;-75
2022/05/03 08:28:31;;;;;;;12.02;10.80;;;16.40;99.90;;;;;;5071331;28;20041;-73
2022/05/03 08:30:57;;;;;;;15.15;9.95;;;16.30;99.90;;;;;;5070880;28;20017;-74
2022/05/03 08:33:23;;;;;;;11.95;10.50;;;16.30;99.90;;;;;;5071551;28;20020;-75
2022/05/03 08:35:48;;;;;;;11.88;10.60;;;16.10;99.90;;;;;;5070294;28;20029;-76
2022/05/03 08:43:44;;;;;;;11.23;10.13;;;16.00;99.90;;;;;;5058281;28;20032;-74
2022/05/03 08:46:11;;;;;;;11.68;10.43;;;16.00;99.90;;;;;;5069843;28;20027;-73
2022/05/03 08:48:40;;;;;;;13.15;10.45;;;16.00;99.90;;;;;;5058578;28;20024;-74
2022/05/03 08:51:07;;;;;;;12.00;10.73;;;16.00;99.90;;;;;;5070771;28;20016;-73
2022/05/03 08:53:34;;;;;;;10.90;9.80;;;16.10;99.90;;;;;;5071261;28;20020;-74
2022/05/03 08:56:00;;;;;;;11.57;10.43;;;16.30;99.90;;;;;;5070061;28;20055;-74
2022/05/03 08:58:26;;;;;;;11.82;10.63;;;16.50;99.90;;;;;;5062108;28;20028;-74
2022/05/03 09:00:51;;;;;;;11.02;9.88;;;16.20;99.90;;;;;;5067695;28;20025;-74
2022/05/03 09:03:17;;;;;;;13.25;10.13;;;16.30;99.90;;;;;;5063615;28;20040;-74
2022/05/03 09:05:42;;;;;;;14.52;10.70;;;16.30;99.90;;;;;;5067151;28;20040;-74
2022/05/03 09:08:10;;;;;;;12.90;10.82;;;16.50;99.90;;;;;;5074994;28;20029;-74
2022/05/03 09:10:39;;;;;;;13.82;10.02;;;16.40;99.90;;;;;;5074471;28;20482;-74
2022/05/03 09:13:22;;;;;;;11.45;10.30;;;16.40;99.90;;;;;;5073777;28;20478;-74
2022/05/03 09:15:57;;;;;;;11.18;10.07;;;16.40;99.90;;;;;;5075002;28;20098;-74
2022/05/03 09:18:26;;;;;;;13.55;10.52;;;16.50;99.90;;;;;;5074927;28;20024;-75
2022/05/03 09:23:46;;;;;;;11.07;9.75;;;16.70;99.90;;;;;;5061673;28;20074;-75
2022/05/03 09:26:26;;;;;;;11.55;10.30;;;16.80;99.90;;;;;;5074805;28;20052;-75
2022/05/03 09:29:03;;;;;;;12.57;10.85;;;16.90;99.90;;;;;;5061268;28;20024;-75
2022/05/03 09:31:41;;;;;;;9.90;8.70;;;16.90;99.90;;;;;;5073967;28;20027;-75
2022/05/03 09:34:19;;;;;;;10.32;9.13;;;17.00;99.90;;;;;;5073229;28;20506;-74
2022/05/03 09:36:52;;;;;;;10.15;8.40;;;16.90;99.90;;;;;;5074381;28;20094;-74
2022/05/03 09:39:31;;;;;;;10.60;9.45;;;17.10;99.90;;;;;;5074389;28;20098;-75
2022/05/03 09:42:11;;;;;;;10.35;9.23;;;16.90;99.90;;;;;;5073863;28;20544;-74
2022/05/03 09:44:49;;;;;;;9.45;8.55;;;16.80;99.90;;;;;;5070662;28;20513;-75
2022/05/03 09:47:15;;;;;;;12.40;9.52;;;16.90;99.90;;;;;;5069539;28;20698;-74
2022/05/03 09:49:42;;;;;;;10.43;9.38;;;16.90;99.90;;;;;;5074176;28;20021;-75
2022/05/03 09:52:21;;;;;;;10.23;8.68;;;16.80;99.90;;;;;;5073746;28;20199;-75
2022/05/03 09:54:49;;;;;;;11.77;9.00;;;16.90;99.90;;;;;;5074287;28;20063;-74
2022/05/03 09:57:22;;;;;;;10.30;9.30;;;16.90;99.90;;;;;;5074207;28;20059;-74
2022/05/03 09:59:52;;;;;;;11.88;9.02;;;17.20;99.90;;;;;;5076175;28;20024;-74
2022/05/03 10:02:20;;;;;;;10.82;9.70;;;17.20;99.90;;;;;;5072370;28;20020;-74
2022/05/03 10:04:47;;;;;;;10.15;9.18;;;17.30;99.90;;;;;;5074032;28;20103;-75
2022/05/03 10:07:13;;;;;;;10.13;9.13;;;17.10;99.90;;;;;;5078856;28;20050;-74
2022/05/03 10:09:41;;;;;;;9.60;8.70;;;17.10;99.90;;;;;;5069764;28;20025;-74
2022/05/03 10:12:09;;;;;;;9.75;8.75;;;17.30;99.90;;;;;;5067058;28;20021;-74
2022/05/03 10:14:35;;;;;;;11.63;9.40;;;17.40;99.90;;;;;;5073883;28;20020;-75
2022/05/03 10:22:37;;;;;;;10.32;8.00;;;17.70;99.90;;;;;;5073452;28;20171;-74
2022/05/03 10:25:04;;;;;;;9.43;7.72;;;17.90;99.90;;;;;;5060443;28;20491;-74
2022/05/03 10:27:32;;;;;;;8.55;7.53;;;18.20;99.90;;;;;;5073180;28;20036;-74
2022/05/03 10:30:22;;;;;;;8.73;7.40;;;18.40;99.90;;;;;;5072637;28;20005;-74
2022/05/03 10:33:20;;;;;;;9.35;7.28;;;18.40;99.90;;;;;;5073569;28;20540;-74
2022/05/03 10:35:47;;;;;;;8.35;7.22;;;18.40;99.90;;;;;;5028049;28;20450;-75
2022/05/03 10:38:12;;;;;;;8.05;7.25;;;18.50;99.90;;;;;;5073370;28;20108;-74
2022/05/03 10:40:43;;;;;;;8.65;7.30;;;18.70;99.90;;;;;;5071436;28;20052;-74
2022/05/03 10:43:13;;;;;;;8.05;7.10;;;19.10;99.90;;;;;;5073356;28;20371;-74
2022/05/03 10:45:56;;;;;;;8.35;6.97;;;19.00;99.90;;;;;;5062445;28;20033;-74
2022/05/03 10:48:26;;;;;;;8.02;6.43;;;19.20;99.90;;;;;;5065443;28;20417;-75
2022/05/03 10:50:53;;;;;;;7.43;6.45;;;19.50;99.90;;;;;;5064791;28;20020;-74
2022/05/03 10:53:23;;;;;;;5.80;5.30;;;19.30;99.90;;;;;;5072847;28;20039;-74
2022/05/03 10:56:10;;;;;;;8.13;5.82;;;19.50;99.90;;;;;;5071853;28;20066;-74
2022/05/03 10:58:38;;;;;;;7.15;6.18;;;19.70;99.90;;;;;;5063733;28;20025;-73
2022/05/03 11:01:21;;;;;;;10.30;6.65;;;19.70;99.90;;;;;;5071052;28;20013;-74
2022/05/03 11:03:54;;;;;;;8.30;6.95;;;19.90;99.90;;;;;;5072957;28;20021;-73
2022/05/03 11:06:20;;;;;;;7.10;6.50;;;19.80;99.90;;;;;;5072699;28;20048;-74
2022/05/03 11:08:57;;;;;;;8.02;6.75;;;19.80;99.90;;;;;;5072656;28;20049;-74
2022/05/03 11:11:44;;;;;;;6.88;6.20;;;19.80;99.90;;;;;;5059337;28;20047;-74
2022/05/03 11:14:15;;;;;;;8.45;6.22;;;20.00;99.90;;;;;;5071395;28;20021;-74
2022/05/03 11:16:42;;;;;;;7.65;6.70;;;19.80;99.90;;;;;;5072544;28;20513;-75
2022/05/03 11:19:08;;;;;;;7.50;6.82;;;19.90;99.90;;;;;;5071184;28;20024;-74
2022/05/03 11:21:34;;;;;;;14.73;13.18;;;20.20;99.90;;;;;;5071797;28;20059;-74
2022/05/03 11:23:59;;;;;;;7.30;6.43;;;20.50;99.90;;;;;;5071258;28;20055;-74
2022/05/03 11:26:25;;;;;;;6.45;5.85;;;20.30;99.90;;;;;;5070632;28;20025;-75
2022/05/03 11:28:52;;;;;;;8.70;6.43;;;20.80;99.90;;;;;;5071860;28;20025;-75
2022/05/03 11:31:22;;;;;;;6.45;5.40;;;20.60;99.90;;;;;;5068907;28;20020;-74
2022/05/03 11:33:49;;;;;;;5.70;4.97;;;20.70;99.90;;;;;;5069626;28;20016;-74
2022/05/03 11:36:15;;;;;;;6.82;5.57;;;20.80;99.90;;;;;;5069920;28;20037;-75
2022/05/03 11:38:40;;;;;;;6.75;5.85;;;21.20;99.90;;;;;;5071926;28;20432;-75
2022/05/03 11:41:07;;;;;;;7.05;5.18;;;21.40;99.90;;;;;;5071225;28;20064;-74
2022/05/03 11:43:33;;;;;;;5.78;5.18;;;21.30;99.90;;;;;;5071970;28;20025;-75
2022/05/03 11:45:59;;;;;;;5.97;5.38;;;21.20;99.90;;;;;;5071914;28;20024;-75
2022/05/03 11:48:25;;;;;;;7.22;5.32;;;20.90;99.90;;;;;;5071971;28;20025;-74
2022/05/03 11:56:29;;;;;;;6.50;5.38;;;21.30;99.90;;;;;;5071904;28;20039;-74
2022/05/03 11:58:55;;;;;;;6.45;5.82;;;21.20;99.90;;;;;;5070696;28;20017;-74
2022/05/03 12:01:23;;;;;;;8.00;5.22;;;21.20;99.90;;;;;;5069976;28;20024;-74
2022/05/03 12:03:51;;;;;;;8.20;5.82;;;20.90;99.60;;;;;;5071892;28;20024;-74
2022/05/03 12:06:17;;;;;;;9.27;5.95;;;20.20;99.90;;;;;;5071950;28;20424;-74
2022/05/03 12:08:45;;;;;;;6.13;5.05;;;20.70;99.90;;;;;;5070582;28;20024;-74
2022/05/03 12:11:24;;;;;;;5.60;4.95;;;21.40;99.90;;;;;;5069897;28;20021;-74
2022/05/03 12:13:49;;;;;;;5.75;5.15;;;21.70;99.90;;;;;;5070472;28;20021;-74
2022/05/03 12:16:21;;;;;;;6.63;6.03;;;21.80;99.90;;;;;;5071563;28;20047;-72
2022/05/03 12:18:48;;;;;;;5.97;5.30;;;21.90;99.70;;;;;;5071561;28;20073;-74
2022/05/03 12:21:20;;;;;;;6.65;5.30;;;22.40;99.90;;;;;;5070995;28;20020;-74
2022/05/03 12:23:48;;;;;;;7.82;5.45;;;23.30;99.80;;;;;;5071460;28;20033;-74
2022/05/03 12:26:13;;;;;;;5.78;5.18;;;23.40;97.90;;;;;;5071462;28;20103;-74
2022/05/03 12:28:40;;;;;;;5.78;5.22;;;23.70;97.40;;;;;;5071389;28;20116;-73
2022/05/03 12:31:08;;;;;;;6.85;5.38;;;23.20;96.40;;;;;;5069822;28;20063;-74
2022/05/03 12:33:50;;;;;;;5.50;5.00;;;22.40;97.50;;;;;;5068014;28;20028;-74
2022/05/03 12:36:43;;;;;;;5.78;4.63;;;22.30;98.40;;;;;;5064076;28;20028;-73
2022/05/03 12:39:21;;;;;;;5.78;5.10;;;22.70;96.70;;;;;;5061092;28;20025;-74
2022/05/03 12:42:01;;;;;;;6.10;5.43;;;23.10;96.10;;;;;;5074686;28;20437;-74
2022/05/03 12:44:31;;;;;;;5.63;5.05;;;22.60;95.90;;;;;;5075689;28;20378;-74
2022/05/03 12:47:06;;;;;;;6.07;5.28;;;22.20;96.40;;;;;;5061016;28;20063;-74
2022/05/03 12:49:33;;;;;;;5.22;4.82;;;23.40;95.20;;;;;;5075525;28;20048;-74
2022/05/03 12:51:59;;;;;;;5.88;5.20;;;24.10;94.10;;;;;;5074891;28;20056;-73
2022/05/03 12:54:24;;;;;;;6.75;5.13;;;24.50;93.40;;;;;;5075503;28;20411;-74
2022/05/03 12:59:34;;;;;;;5.65;5.15;;;25.30;92.60;;;;;;5075678;28;20048;-74
2022/05/03 13:01:59;;;;;;;6.03;5.43;;;24.70;90.90;;;;;;5074459;28;20459;-75
2022/05/03 13:04:28;;;;;;;5.18;4.55;;;24.60;92.00;;;;;;5075177;28;20036;-74
2022/05/03 13:06:54;;;;;;;5.15;4.25;;;24.40;92.70;;;;;;5075047;28;20027;-74
2022/05/03 13:09:21;;;;;;;6.47;4.65;;;23.20;92.80;;;;;;5075183;28;20121;-74
2022/05/03 13:11:46;;;;;;;6.95;4.70;;;22.70;92.60;;;;;;5074436;28;20028;-74
2022/05/03 13:14:13;;;;;;;4.63;4.22;;;22.00;92.40;;;;;;5070965;28;20099;-74
2022/05/03 13:16:40;;;;;;;5.00;4.07;;;22.10;92.60;;;;;;5065649;28;20031;-74
2022/05/03 13:19:06;;;;;;;5.75;4.70;;;21.80;92.00;;;;;;5074954;28;20077;-74
2022/05/03 13:21:36;;;;;;;4.88;4.38;;;23.20;91.70;;;;;;5074209;28;20063;-74
2022/05/03 13:24:06;;;;;;;5.50;5.00;;;24.60;91.50;;;;;;5074858;28;20025;-74
2022/05/03 13:26:33;;;;;;;6.15;4.90;;;25.60;89.40;;;;;;5074436;28;20017;-74